Time;durP1;ratioP1;P1;durP2;ratioP2;P2;SDS_P1;SDS_P2;PMS_P1;PMS_P2;Temp;Humidity;BMP_temperature;BMP_pressure;BME280_temperature;BME280_humidity;BME280_pressure;Samples;Min_cycle;Max_cycle;Signal;HPM_P1;HPM_P2
2023/05/28 00:01:18;;;;;;;2.77;2.40;;;10.50;89.60;10.30;101167.00;;;;5008462;27;111833;-69
2023/05/28 00:03:43;;;;;;;4.33;1.80;;;10.40;90.10;10.30;101150.00;;;;5010113;27;107837;-69
2023/05/28 00:06:09;;;;;;;2.43;1.77;;;10.40;90.30;10.20;101158.00;;;;5009939;27;119698;-70
2023/05/28 00:08:35;;;;;;;4.53;2.63;;;10.30;90.50;10.20;101149.00;;;;5009151;27;89544;-70
2023/05/28 00:11:01;;;;;;;2.90;2.20;;;10.10;90.80;10.10;101150.00;;;;5008627;27;109091;-70
2023/05/28 00:13:30;;;;;;;3.53;2.40;;;10.20;91.10;10.00;101144.00;;;;4999130;27;87888;-70
2023/05/28 00:15:56;;;;;;;3.43;2.17;;;10.10;91.40;9.90;101142.00;;;;5012248;27;117440;-70
2023/05/28 00:18:23;;;;;;;7.13;2.40;;;10.00;91.60;9.80;101137.00;;;;5006707;27;88312;-70
2023/05/28 00:20:49;;;;;;;3.63;2.20;;;9.90;92.00;9.80;101136.00;;;;4989692;27;87891;-70
2023/05/28 00:23:16;;;;;;;2.97;1.97;;;9.90;92.30;9.70;101134.00;;;;5007787;27;97187;-71
2023/05/28 00:25:42;;;;;;;1.97;1.83;;;9.80;92.60;9.60;101142.00;;;;5008580;27;88026;-70
2023/05/28 00:28:07;;;;;;;2.57;2.30;;;9.70;92.90;9.60;101128.00;;;;5007060;27;110133;-70
2023/05/28 00:30:33;;;;;;;4.73;2.27;;;9.70;93.20;9.50;101140.00;;;;5006652;27;108943;-70
2023/05/28 00:32:59;;;;;;;3.03;2.27;;;9.60;93.50;9.50;101140.00;;;;4993044;27;108446;-70
2023/05/28 00:35:25;;;;;;;6.17;2.43;;;9.60;93.80;9.40;101137.00;;;;5006649;27;105283;-71
2023/05/28 00:37:52;;;;;;;3.73;2.67;;;9.50;94.00;9.30;101136.00;;;;5007485;27;88274;-70
2023/05/28 00:40:18;;;;;;;4.03;2.10;;;9.40;94.40;9.20;101137.00;;;;5006808;27;87945;-71
2023/05/28 00:42:46;;;;;;;3.90;2.47;;;9.30;94.70;9.10;101133.00;;;;5007325;27;87940;-71
2023/05/28 00:45:12;;;;;;;4.73;2.90;;;9.30;95.00;9.10;101138.00;;;;5002707;27;113897;-70
2023/05/28 00:47:40;;;;;;;2.43;1.87;;;9.20;95.20;9.00;101131.00;;;;5005383;27;119673;-71
2023/05/28 00:50:10;;;;;;;2.70;2.50;;;9.20;95.60;9.00;101119.00;;;;4990088;27;87980;-71
2023/05/28 00:52:36;;;;;;;4.90;2.53;;;9.10;95.80;8.90;101121.00;;;;4996646;27;88008;-70
2023/05/28 00:55:14;;;;;;;4.20;2.53;;;9.00;96.10;8.90;101112.00;;;;5003871;27;118775;-71
2023/05/28 00:57:40;;;;;;;2.60;1.87;;;9.00;96.30;8.80;101116.00;;;;4982225;28;88767;-71
2023/05/28 01:00:08;;;;;;;3.60;2.47;;;8.90;96.50;8.80;101120.00;;;;5002443;27;88094;-71
2023/05/28 01:02:34;;;;;;;2.90;2.23;;;8.90;96.80;8.80;101118.00;;;;4989856;27;87838;-71
2023/05/28 01:04:59;;;;;;;4.60;2.30;;;8.90;97.00;8.80;101110.00;;;;4994801;27;93917;-71
2023/05/28 01:07:26;;;;;;;4.20;2.13;;;8.90;97.30;8.70;101114.00;;;;5004569;27;119191;-71
2023/05/28 01:09:52;;;;;;;8.37;2.13;;;8.90;97.50;8.80;101121.00;;;;4990009;27;87850;-71
2023/05/28 01:12:18;;;;;;;3.07;1.87;;;8.90;97.70;8.70;101118.00;;;;4987555;27;108175;-71
2023/05/28 01:14:44;;;;;;;3.93;1.93;;;8.80;97.90;8.70;101111.00;;;;4993950;27;88852;-71
2023/05/28 01:17:11;;;;;;;4.10;2.23;;;8.80;98.10;8.70;101115.00;;;;4992001;27;120861;-71
2023/05/28 01:19:37;;;;;;;3.40;2.37;;;8.80;98.20;8.70;101112.00;;;;4988943;27;89098;-71
2023/05/28 01:22:05;;;;;;;4.37;2.43;;;8.80;98.30;8.60;101106.00;;;;4992377;27;109537;-71
2023/05/28 01:24:34;;;;;;;2.10;1.67;;;8.80;98.60;8.60;101109.00;;;;5006584;27;88338;-70
2023/05/28 01:27:01;;;;;;;2.70;1.97;;;8.80;98.70;8.60;101108.00;;;;5006047;27;103691;-71
2023/05/28 01:29:27;;;;;;;2.77;2.20;;;8.70;98.80;8.60;101114.00;;;;5007124;27;87908;-70
2023/05/28 01:31:52;;;;;;;7.40;2.40;;;8.80;99.00;8.60;101106.00;;;;5003882;27;108495;-70
2023/05/28 01:34:18;;;;;;;4.80;1.83;;;8.70;99.10;8.50;101105.00;;;;5006702;27;117972;-71
2023/05/28 01:36:51;;;;;;;3.60;2.87;;;8.70;99.30;8.50;101099.00;;;;4990336;27;106028;-71
2023/05/28 01:39:19;;;;;;;2.93;2.37;;;8.60;99.50;8.50;101102.00;;;;4993546;27;102881;-70
2023/05/28 01:41:46;;;;;;;5.03;2.60;;;8.70;99.70;8.50;101095.00;;;;5006834;27;87846;-70
2023/05/28 01:44:18;;;;;;;1.70;1.60;;;8.60;99.90;8.40;101101.00;;;;4986269;27;89420;-71
2023/05/28 01:46:46;;;;;;;2.80;1.80;;;8.50;99.90;8.30;101105.00;;;;4994141;27;88761;-71
2023/05/28 01:49:13;;;;;;;2.30;2.10;;;8.40;99.90;8.20;101101.00;;;;5007849;27;87885;-71
2023/05/28 01:51:38;;;;;;;4.47;2.43;;;8.40;99.90;8.20;101100.00;;;;4997757;27;87971;-70
2023/05/28 01:54:04;;;;;;;7.47;3.00;;;8.30;99.90;8.10;101095.00;;;;4967563;28;117467;-70
2023/05/28 01:56:30;;;;;;;2.53;2.13;;;8.30;99.90;8.10;101086.00;;;;4986921;28;114677;-71
2023/05/28 01:58:56;;;;;;;2.53;2.23;;;8.20;99.90;8.00;101092.00;;;;4971408;28;109432;-70
2023/05/28 02:01:30;;;;;;;3.03;2.73;;;8.20;99.90;8.00;101096.00;;;;4988346;28;87179;-71
2023/05/28 02:04:00;;;;;;;2.97;2.00;;;8.10;99.90;7.90;101086.00;;;;4966328;28;109564;-71
2023/05/28 02:06:30;;;;;;;2.90;2.30;;;8.10;99.90;7.90;101099.00;;;;4970494;28;109841;-71
2023/05/28 02:08:56;;;;;;;8.27;2.77;;;8.00;99.90;7.80;101082.00;;;;4986040;28;88862;-71
2023/05/28 02:11:22;;;;;;;5.17;2.63;;;8.00;99.90;7.80;101088.00;;;;4956157;28;88078;-71
2023/05/28 02:13:48;;;;;;;4.33;2.57;;;8.00;99.90;7.80;101084.00;;;;4983632;28;117869;-71
2023/05/28 02:16:17;;;;;;;2.67;2.47;;;8.00;99.90;7.80;101076.00;;;;4968036;28;88123;-71
2023/05/28 02:18:45;;;;;;;2.63;1.77;;;7.90;99.90;7.80;101069.00;;;;4984900;28;88199;-71
2023/05/28 02:21:11;;;;;;;2.27;2.07;;;8.00;99.90;7.70;101071.00;;;;4965796;28;87964;-71
2023/05/28 02:23:42;;;;;;;6.00;3.40;;;7.90;99.90;7.70;101065.00;;;;4985454;28;91355;-70
2023/05/28 02:26:07;;;;;;;3.73;2.43;;;7.80;99.90;7.60;101070.00;;;;4969844;28;110164;-71
2023/05/28 02:28:33;;;;;;;5.90;2.90;;;7.70;99.90;7.50;101067.00;;;;4968942;28;108919;-70
2023/05/28 02:30:59;;;;;;;3.90;2.33;;;7.70;99.90;7.40;101062.00;;;;4967548;28;108397;-70
2023/05/28 02:33:25;;;;;;;5.60;2.30;;;7.60;99.90;7.30;101066.00;;;;4981414;28;114319;-71
2023/05/28 02:35:50;;;;;;;2.43;2.03;;;7.50;99.90;7.20;101063.00;;;;4984338;28;88040;-70
2023/05/28 02:38:16;;;;;;;3.03;2.77;;;7.40;99.90;7.20;101070.00;;;;4983607;28;89946;-70
2023/05/28 02:40:42;;;;;;;2.70;1.87;;;7.30;99.90;7.10;101065.00;;;;4983394;28;108974;-70
2023/05/28 02:43:07;;;;;;;2.23;2.03;;;7.30;99.90;7.10;101061.00;;;;4982788;28;119215;-70
2023/05/28 02:45:33;;;;;;;3.87;2.47;;;7.20;99.90;7.00;101058.00;;;;4984435;28;115386;-71
2023/05/28 02:47:59;;;;;;;2.53;2.00;;;7.50;99.90;7.00;101059.00;;;;4984137;28;109826;-71
2023/05/28 02:50:24;;;;;;;2.60;2.00;;;7.10;99.90;6.90;101060.00;;;;4982698;28;109561;-71
2023/05/28 02:52:50;;;;;;;1.57;1.47;;;7.40;99.90;6.90;101061.00;;;;4968340;28;104766;-71
2023/05/28 02:55:16;;;;;;;3.53;2.43;;;7.00;99.90;6.90;101060.00;;;;4985093;28;87811;-71
2023/05/28 02:57:41;;;;;;;3.57;2.20;;;7.00;99.90;6.80;101047.00;;;;4983798;28;89051;-71
2023/05/28 03:00:11;;;;;;;2.47;1.47;;;7.10;99.90;6.70;101054.00;;;;4984588;28;108763;-70
2023/05/28 03:02:36;;;;;;;2.13;1.80;;;6.90;99.90;6.70;101060.00;;;;4986081;28;88517;-71
2023/05/28 03:05:02;;;;;;;5.57;2.40;;;6.90;99.90;6.70;101059.00;;;;4982282;28;117972;-71
2023/05/28 03:07:31;;;;;;;3.80;1.97;;;6.80;99.90;6.70;101058.00;;;;4987026;28;87730;-71
2023/05/28 03:09:58;;;;;;;4.97;2.90;;;7.10;99.90;6.60;101064.00;;;;4982944;28;98644;-71
2023/05/28 03:12:24;;;;;;;2.80;1.60;;;7.10;99.90;6.60;101063.00;;;;4983227;28;111705;-71
2023/05/28 03:14:50;;;;;;;2.17;1.73;;;6.70;99.90;6.60;101057.00;;;;4984871;28;88807;-71
2023/05/28 03:17:15;;;;;;;2.50;2.30;;;7.10;99.90;6.70;101058.00;;;;4982896;28;109216;-71
2023/05/28 03:19:42;;;;;;;3.77;2.50;;;6.80;99.90;6.70;101060.00;;;;4983172;28;107737;-71
2023/05/28 03:22:08;;;;;;;6.17;3.23;;;6.80;99.90;6.70;101067.00;;;;4984353;28;89889;-71
2023/05/28 03:24:34;;;;;;;6.53;3.10;;;6.80;99.90;6.70;101060.00;;;;4984902;28;99855;-70
2023/05/28 03:27:01;;;;;;;4.40;2.43;;;6.80;99.90;6.70;101066.00;;;;4968520;28;88189;-71
2023/05/28 03:29:27;;;;;;;5.80;2.23;;;7.30;99.90;6.70;101066.00;;;;4984867;28;89512;-71
2023/05/28 03:31:52;;;;;;;6.00;2.80;;;6.90;99.90;6.70;101070.00;;;;4985749;28;118021;-71
2023/05/28 03:34:18;;;;;;;2.63;1.70;;;7.40;99.90;6.80;101066.00;;;;4983251;28;118363;-70
2023/05/28 03:36:44;;;;;;;3.43;2.70;;;6.90;99.90;6.80;101079.00;;;;4986402;28;88391;-72
2023/05/28 03:39:10;;;;;;;2.77;1.77;;;6.90;99.90;6.80;101068.00;;;;4972481;28;108515;-71
2023/05/28 03:41:37;;;;;;;3.07;2.20;;;7.10;99.90;6.90;101070.00;;;;4986490;28;89231;-71
2023/05/28 03:44:04;;;;;;;3.40;2.77;;;7.30;99.90;6.90;101068.00;;;;4982095;28;118217;-71
2023/05/28 03:46:30;;;;;;;2.53;2.17;;;7.00;99.90;7.00;101071.00;;;;4967907;28;88724;-71
2023/05/28 03:48:55;;;;;;;7.50;1.80;;;7.10;99.90;7.00;101065.00;;;;4986852;28;87876;-71
2023/05/28 03:51:23;;;;;;;5.90;2.27;;;7.10;99.90;7.10;101062.00;;;;4985375;27;116817;-71
2023/05/28 03:53:49;;;;;;;4.90;1.87;;;7.20;99.90;7.10;101064.00;;;;5007366;27;89100;-71
2023/05/28 03:56:16;;;;;;;3.60;2.43;;;7.20;99.90;7.10;101061.00;;;;4999772;27;88035;-71
2023/05/28 03:58:42;;;;;;;4.13;2.20;;;7.30;99.90;7.20;101073.00;;;;5007740;27;87845;-70
2023/05/28 04:01:09;;;;;;;2.90;1.90;;;7.40;99.90;7.30;101069.00;;;;5004662;27;118262;-71
2023/05/28 04:03:35;;;;;;;4.37;2.40;;;7.40;99.90;7.30;101068.00;;;;5007769;27;89635;-70
2023/05/28 04:06:01;;;;;;;3.27;1.83;;;7.60;99.90;7.40;101070.00;;;;5007578;27;99375;-70
2023/05/28 04:08:26;;;;;;;2.23;2.00;;;7.50;99.90;7.40;101063.00;;;;5003232;27;87892;-70
2023/05/28 04:10:52;;;;;;;2.43;2.23;;;7.80;99.90;7.40;101068.00;;;;5004227;27;119124;-70
2023/05/28 04:13:18;;;;;;;2.73;2.17;;;7.60;99.90;7.40;101081.00;;;;4973891;27;118055;-70
2023/05/28 04:15:43;;;;;;;3.17;2.10;;;7.60;99.90;7.40;101063.00;;;;5004125;27;105306;-71
2023/05/28 04:18:09;;;;;;;2.43;1.77;;;7.50;99.90;7.50;101075.00;;;;5004609;27;108160;-71
2023/05/28 04:20:38;;;;;;;2.70;2.50;;;7.60;99.90;7.60;101075.00;;;;5003465;27;108852;-71
2023/05/28 04:23:03;;;;;;;3.67;2.10;;;7.60;99.90;7.60;101076.00;;;;4965058;27;90145;-71
2023/05/28 04:25:29;;;;;;;3.27;2.40;;;7.70;99.90;7.70;101078.00;;;;5007937;27;96204;-71
2023/05/28 04:27:56;;;;;;;4.47;2.73;;;7.70;99.90;7.80;101071.00;;;;5007350;27;109233;-71
2023/05/28 04:30:23;;;;;;;4.50;2.47;;;7.80;99.90;7.80;101065.00;;;;4995317;27;91789;-71
2023/05/28 04:32:53;;;;;;;4.53;2.27;;;7.90;99.90;8.00;101067.00;;;;5001293;27;89422;-71
2023/05/28 04:35:19;;;;;;;6.53;2.23;;;8.00;99.90;8.20;101065.00;;;;4992578;27;88926;-71
2023/05/28 04:37:45;;;;;;;3.70;2.57;;;8.20;99.90;8.40;101071.00;;;;5001822;27;88179;-71
2023/05/28 04:40:14;;;;;;;3.90;2.07;;;8.40;99.90;8.70;101071.00;;;;5004416;27;100405;-71
2023/05/28 04:42:41;;;;;;;3.47;2.30;;;8.60;99.90;8.90;101060.00;;;;4988126;27;87882;-71
2023/05/28 04:45:08;;;;;;;2.07;1.80;;;8.90;99.90;9.20;101071.00;;;;4996893;27;88023;-70
2023/05/28 04:47:34;;;;;;;7.53;1.90;;;9.20;99.90;9.40;101073.00;;;;5008498;27;88348;-70
2023/05/28 04:50:03;;;;;;;9.10;2.90;;;9.30;99.90;9.60;101076.00;;;;5006677;27;89034;-70
2023/05/28 04:52:30;;;;;;;4.47;2.53;;;9.60;99.90;9.80;101074.00;;;;5006904;27;89027;-70
2023/05/28 04:54:56;;;;;;;3.00;2.57;;;9.80;99.90;10.00;101071.00;;;;5006646;27;87817;-70
2023/05/28 04:57:23;;;;;;;4.00;2.10;;;10.00;99.90;10.20;101070.00;;;;5004389;27;87957;-70
2023/05/28 04:59:49;;;;;;;2.17;1.73;;;10.20;99.90;10.40;101072.00;;;;5004882;27;119236;-70
2023/05/28 05:02:18;;;;;;;2.90;2.33;;;10.30;99.90;10.60;101070.00;;;;5006023;27;87837;-71
2023/05/28 05:04:43;;;;;;;3.87;2.63;;;10.60;99.90;10.80;101078.00;;;;4985575;27;88196;-70
2023/05/28 05:07:09;;;;;;;3.20;2.03;;;10.80;99.90;11.00;101077.00;;;;5007096;27;87974;-70
2023/05/28 05:09:35;;;;;;;2.83;1.83;;;11.00;99.90;11.20;101075.00;;;;5008234;27;119104;-70
2023/05/28 05:12:00;;;;;;;2.43;1.47;;;11.10;99.90;11.40;101076.00;;;;5007154;27;116691;-70
2023/05/28 05:14:26;;;;;;;4.30;2.27;;;11.30;99.90;11.60;101069.00;;;;5004921;27;110606;-69
2023/05/28 05:16:52;;;;;;;2.67;2.20;;;11.50;99.90;11.80;101070.00;;;;5006970;27;87233;-69
2023/05/28 05:19:18;;;;;;;2.63;1.90;;;11.70;99.90;12.10;101071.00;;;;5005675;27;87819;-70
2023/05/28 05:21:44;;;;;;;2.43;1.77;;;12.00;99.90;12.30;101070.00;;;;4990448;27;87657;-68
2023/05/28 05:24:10;;;;;;;3.17;1.63;;;12.20;99.90;12.50;101061.00;;;;5002831;27;88916;-69
2023/05/28 05:26:36;;;;;;;6.00;1.83;;;12.40;99.90;12.70;101058.00;;;;5003842;27;108090;-68
2023/05/28 05:29:01;;;;;;;4.97;2.37;;;12.60;99.90;12.90;101062.00;;;;5001518;27;116849;-68
2023/05/28 05:31:27;;;;;;;2.30;2.07;;;12.80;99.90;13.10;101065.00;;;;5003445;27;90072;-68
2023/05/28 05:33:52;;;;;;;1.97;1.77;;;13.00;99.90;13.40;101064.00;;;;5001416;27;110323;-69
2023/05/28 05:36:18;;;;;;;1.77;1.67;;;13.30;99.90;13.60;101067.00;;;;5002063;27;102488;-69
2023/05/28 05:38:45;;;;;;;2.87;1.93;;;13.50;99.90;13.90;101072.00;;;;5003367;27;115732;-68
2023/05/28 05:41:11;;;;;;;4.70;1.87;;;13.70;99.90;14.10;101069.00;;;;5001083;27;88432;-68
2023/05/28 05:43:37;;;;;;;3.07;2.00;;;13.90;99.90;14.30;101068.00;;;;5003658;27;96977;-67
2023/05/28 05:46:03;;;;;;;2.93;2.17;;;14.10;99.90;14.40;101067.00;;;;5002438;27;88134;-68
2023/05/28 05:48:28;;;;;;;3.30;2.27;;;14.30;99.90;14.50;101074.00;;;;5002070;27;118709;-68
2023/05/28 05:50:55;;;;;;;3.33;1.70;;;14.40;99.90;14.60;101069.00;;;;5000106;27;117492;-67
2023/05/28 05:53:22;;;;;;;5.85;2.00;;;14.50;99.90;14.80;101076.00;;;;5001669;27;88140;-69
2023/05/28 05:55:48;;;;;;;5.07;1.95;;;14.60;99.90;14.90;101076.00;;;;5002050;27;88395;-69
2023/05/28 05:58:14;;;;;;;4.38;2.03;;;14.80;99.90;15.10;101083.00;;;;5000401;27;89259;-69
2023/05/28 06:00:40;;;;;;;2.45;1.70;;;15.00;99.90;15.30;101074.00;;;;5001829;27;88651;-71
2023/05/28 06:03:07;;;;;;;2.15;1.60;;;15.20;99.90;15.50;101070.00;;;;4989137;27;88822;-70
2023/05/28 06:05:36;;;;;;;3.40;2.05;;;15.30;99.90;15.70;101077.00;;;;5002076;27;87091;-70
2023/05/28 06:08:02;;;;;;;3.40;2.58;;;15.50;99.90;15.90;101074.00;;;;5002796;27;87949;-68
2023/05/28 06:10:29;;;;;;;1.45;1.35;;;15.70;99.30;16.10;101073.00;;;;4998676;27;87736;-69
2023/05/28 06:12:55;;;;;;;2.50;1.52;;;15.90;98.00;16.20;101078.00;;;;5001177;27;89252;-69
2023/05/28 06:15:21;;;;;;;3.25;2.25;;;16.10;97.80;16.50;101075.00;;;;5000245;27;87849;-70
2023/05/28 06:17:48;;;;;;;1.20;1.10;;;16.30;97.20;16.70;101078.00;;;;4999710;27;117739;-70
2023/05/28 06:20:14;;;;;;;7.18;2.53;;;16.50;96.60;16.90;101074.00;;;;5001678;27;88095;-69
2023/05/28 06:22:40;;;;;;;3.22;2.70;;;16.70;96.20;17.10;101074.00;;;;4995260;27;87853;-70
2023/05/28 06:25:08;;;;;;;2.33;1.73;;;16.90;95.40;17.30;101072.00;;;;5001194;27;87744;-69
2023/05/28 06:27:35;;;;;;;3.35;1.75;;;17.10;94.80;17.50;101068.00;;;;4996019;27;88260;-69
2023/05/28 06:30:02;;;;;;;4.40;1.30;;;17.30;93.80;17.70;101068.00;;;;5002150;27;87483;-69
2023/05/28 06:32:28;;;;;;;3.95;1.42;;;17.60;93.00;17.90;101067.00;;;;4994656;27;98927;-69
2023/05/28 06:34:54;;;;;;;5.60;2.15;;;17.70;92.70;18.10;101061.00;;;;5001297;27;90180;-69
2023/05/28 06:37:19;;;;;;;2.75;2.08;;;17.90;91.30;18.30;101068.00;;;;4989560;27;117312;-69
2023/05/28 06:39:45;;;;;;;2.25;1.60;;;18.10;90.60;18.50;101062.00;;;;5001962;27;117975;-69
2023/05/28 06:42:11;;;;;;;3.03;1.65;;;18.30;90.20;18.60;101065.00;;;;4993584;27;111019;-69
2023/05/28 06:44:36;;;;;;;2.00;1.20;;;18.40;89.70;18.90;101068.00;;;;4997993;27;87858;-69
2023/05/28 06:47:02;;;;;;;2.20;1.55;;;18.60;87.90;19.10;101070.00;;;;4989676;27;117112;-69
2023/05/28 06:49:28;;;;;;;2.72;1.88;;;18.90;86.20;19.30;101065.00;;;;4983881;27;89742;-69
2023/05/28 06:51:53;;;;;;;2.25;1.40;;;19.00;85.40;19.50;101067.00;;;;4992615;27;88066;-69
2023/05/28 06:54:19;;;;;;;1.58;1.35;;;19.30;84.80;19.80;101067.00;;;;5000898;27;109653;-70
2023/05/28 06:56:45;;;;;;;1.42;1.23;;;19.50;83.90;20.10;101060.00;;;;5002559;27;87605;-70
2023/05/28 06:59:11;;;;;;;3.20;1.27;;;19.80;82.60;20.30;101066.00;;;;5003647;27;88208;-71
2023/05/28 07:01:36;;;;;;;3.47;2.35;;;20.10;78.90;20.50;101063.00;;;;4992569;27;110358;-69
2023/05/28 07:04:02;;;;;;;4.10;1.45;;;20.30;71.60;20.50;101057.00;;;;5001042;27;109021;-69
2023/05/28 07:06:28;;;;;;;3.10;1.92;;;20.30;71.60;20.60;101067.00;;;;4992963;27;117404;-68
2023/05/28 07:08:53;;;;;;;1.77;1.40;;;20.40;68.60;20.70;101065.00;;;;5001803;27;118247;-69
2023/05/28 07:11:19;;;;;;;4.32;1.10;;;20.50;67.40;20.90;101060.00;;;;4990639;27;109800;-69
2023/05/28 07:13:45;;;;;;;2.42;1.48;;;20.60;66.50;21.20;101055.00;;;;5003313;27;88074;-69
2023/05/28 07:16:11;;;;;;;4.65;1.92;;;20.90;63.70;21.30;101051.00;;;;4994179;27;88738;-69
2023/05/28 07:18:37;;;;;;;4.13;1.70;;;21.00;61.20;21.40;101054.00;;;;5000074;27;116689;-71
2023/05/28 07:21:05;;;;;;;2.47;1.02;;;21.10;59.80;21.50;101070.00;;;;4991285;27;110368;-68
2023/05/28 07:23:31;;;;;;;1.98;0.98;;;21.30;58.30;21.70;101060.00;;;;4998496;27;87872;-70
2023/05/28 07:25:57;;;;;;;1.42;1.00;;;21.40;57.30;21.80;101062.00;;;;4972781;27;119048;-68
2023/05/28 07:28:22;;;;;;;2.83;1.00;;;21.50;57.20;22.00;101057.00;;;;5004319;27;93277;-68
2023/05/28 07:30:48;;;;;;;2.42;1.67;;;21.70;57.30;22.30;101059.00;;;;4997983;27;111315;-69
2023/05/28 07:33:13;;;;;;;3.42;1.42;;;22.00;56.90;22.60;101063.00;;;;5001846;27;108482;-69
2023/05/28 07:35:39;;;;;;;1.02;0.85;;;22.30;54.70;22.70;101068.00;;;;4998520;27;119164;-69
2023/05/28 07:38:05;;;;;;;2.63;1.10;;;22.40;52.50;22.80;101065.00;;;;4998713;27;88688;-69
2023/05/28 07:40:31;;;;;;;2.85;0.63;;;22.60;51.90;22.90;101066.00;;;;4985195;27;87882;-69
2023/05/28 07:42:56;;;;;;;5.43;1.10;;;22.70;51.30;23.00;101072.00;;;;4999772;27;108778;-69
2023/05/28 07:45:22;;;;;;;1.50;1.23;;;22.80;50.00;23.20;101077.00;;;;5000747;27;87954;-68
2023/05/28 07:47:48;;;;;;;3.20;1.13;;;22.90;50.00;23.30;101065.00;;;;4997502;27;116682;-69
2023/05/28 07:50:13;;;;;;;1.63;0.73;;;23.10;49.30;23.40;101069.00;;;;5002767;27;109943;-70
2023/05/28 07:52:40;;;;;;;1.98;0.93;;;23.20;49.60;23.70;101065.00;;;;4996829;27;109538;-69
2023/05/28 07:55:07;;;;;;;2.58;0.80;;;23.40;49.40;23.90;101067.00;;;;5003577;27;88377;-71
2023/05/28 07:57:33;;;;;;;0.63;0.47;;;23.60;48.00;24.00;101070.00;;;;5002402;27;88041;-68
2023/05/28 08:00:00;;;;;;;1.70;0.80;;;23.80;47.60;24.10;101070.00;;;;5005137;27;104601;-68
2023/05/28 08:02:26;;;;;;;1.50;0.98;;;23.90;47.20;24.30;101070.00;;;;4994133;27;87978;-69
2023/05/28 08:04:53;;;;;;;1.27;0.93;;;24.00;47.00;24.40;101065.00;;;;5000054;27;88486;-68
2023/05/28 08:07:19;;;;;;;5.40;0.68;;;24.20;46.80;24.50;101068.00;;;;4993938;27;87936;-69
2023/05/28 08:09:45;;;;;;;2.78;1.08;;;24.30;46.00;24.70;101058.00;;;;5005809;27;88010;-70
2023/05/28 08:12:10;;;;;;;0.82;0.80;;;24.40;45.50;24.80;101055.00;;;;4993741;27;87821;-73
2023/05/28 08:14:36;;;;;;;2.60;1.02;;;24.60;44.70;25.00;101059.00;;;;4996580;27;89447;-72
2023/05/28 08:17:02;;;;;;;1.05;0.57;;;24.70;43.30;25.00;101055.00;;;;4996058;27;102165;-71
2023/05/28 08:19:27;;;;;;;0.93;0.65;;;24.80;42.40;24.90;101056.00;;;;5003784;27;102366;-72
2023/05/28 08:21:53;;;;;;;2.78;1.02;;;24.60;41.20;24.90;101058.00;;;;4993239;27;88556;-71
2023/05/28 08:24:20;;;;;;;0.57;0.40;;;24.70;40.40;24.80;101062.00;;;;4988715;27;87996;-71
2023/05/28 08:26:46;;;;;;;2.05;1.00;;;24.60;40.60;24.90;101059.00;;;;4986372;27;90844;-72
2023/05/28 08:29:11;;;;;;;1.95;0.60;;;24.60;40.90;24.90;101061.00;;;;5003151;27;110583;-70
2023/05/28 08:31:37;;;;;;;2.80;0.98;;;24.70;38.70;24.90;101064.00;;;;4987108;27;109335;-73
2023/05/28 08:34:03;;;;;;;1.25;0.60;;;24.70;38.80;24.90;101056.00;;;;5002975;27;117794;-72
2023/05/28 08:36:29;;;;;;;0.70;0.70;;;24.70;37.90;24.80;101057.00;;;;4990305;27;118172;-71
2023/05/28 08:38:55;;;;;;;2.40;0.52;;;24.60;38.00;24.70;101055.00;;;;5003360;27;89744;-72
2023/05/28 08:41:22;;;;;;;0.73;0.50;;;24.50;39.30;24.90;101059.00;;;;4993517;27;88028;-71
2023/05/28 08:43:48;;;;;;;2.88;1.17;;;24.60;39.60;25.10;101058.00;;;;4973040;27;90483;-72
2023/05/28 08:46:14;;;;;;;1.05;0.80;;;24.80;39.20;25.20;101045.00;;;;4994170;27;116756;-73
2023/05/28 08:48:42;;;;;;;2.03;1.05;;;25.00;38.40;25.30;101048.00;;;;4988108;27;88309;-72
2023/05/28 08:51:08;;;;;;;1.15;0.80;;;25.00;38.60;25.40;101059.00;;;;4990508;27;88026;-73
2023/05/28 08:53:43;;;;;;;1.27;0.73;;;25.10;38.60;25.50;101055.00;;;;4987119;27;89852;-71
2023/05/28 08:56:09;;;;;;;3.72;1.05;;;25.20;37.80;25.40;101048.00;;;;4984894;27;88019;-72
2023/05/28 08:58:36;;;;;;;3.05;0.80;;;25.20;36.80;25.30;101051.00;;;;4992413;27;87793;-72
2023/05/28 09:01:10;;;;;;;4.63;0.80;;;25.10;37.20;25.30;101058.00;;;;4992441;27;88207;-73
2023/05/28 09:03:39;;;;;;;0.77;0.77;;;25.00;37.00;25.40;101054.00;;;;5000812;27;116306;-73
2023/05/28 09:06:06;;;;;;;1.52;1.17;;;25.10;37.30;25.40;101054.00;;;;5000457;27;90031;-71
2023/05/28 09:08:32;;;;;;;2.28;0.98;;;25.20;37.30;25.60;101041.00;;;;5001618;27;88066;-71
2023/05/28 09:11:08;;;;;;;1.00;0.68;;;25.20;37.60;25.80;101042.00;;;;4987934;27;107988;-74
2023/05/28 09:13:34;;;;;;;1.25;0.90;;;25.40;37.70;25.90;101047.00;;;;4989158;27;88200;-72
2023/05/28 09:16:00;;;;;;;2.28;0.75;;;25.60;36.00;26.00;101052.00;;;;5010584;27;116244;-71
2023/05/28 09:18:25;;;;;;;1.80;0.93;;;25.70;35.90;26.10;101045.00;;;;5003005;27;88276;-74
2023/05/28 09:20:51;;;;;;;4.22;0.80;;;25.70;36.60;26.30;101050.00;;;;5000046;27;108581;-71
2023/05/28 09:23:18;;;;;;;1.10;0.80;;;25.90;36.50;26.40;101043.00;;;;5002709;27;88616;-75
2023/05/28 09:25:44;;;;;;;1.08;0.98;;;26.00;36.60;26.50;101043.00;;;;4982635;27;87916;-72
2023/05/28 09:28:13;;;;;;;3.05;0.73;;;26.20;36.70;26.70;101052.00;;;;5000701;27;94444;-73
2023/05/28 09:30:40;;;;;;;1.25;1.00;;;26.30;35.80;26.60;101051.00;;;;4996690;27;87827;-72
2023/05/28 09:33:08;;;;;;;0.63;0.63;;;26.30;35.80;26.60;101043.00;;;;4998519;27;88166;-71
2023/05/28 09:35:35;;;;;;;0.82;0.82;;;26.30;35.80;26.70;101044.00;;;;4967590;27;88742;-72
2023/05/28 09:38:11;;;;;;;1.33;1.08;;;26.30;35.90;26.80;101039.00;;;;5001752;27;88163;-71
2023/05/28 09:40:45;;;;;;;0.65;0.65;;;26.40;35.40;26.90;101032.00;;;;5002027;27;88641;-74
2023/05/28 09:43:11;;;;;;;0.98;0.55;;;26.50;35.70;27.10;101034.00;;;;4989910;27;87987;-71
2023/05/28 09:45:37;;;;;;;2.25;0.80;;;26.70;35.60;27.20;101041.00;;;;4998456;27;89629;-72
2023/05/28 09:48:03;;;;;;;0.98;0.65;;;26.80;35.30;27.30;101034.00;;;;5000563;27;110519;-73
2023/05/28 09:50:29;;;;;;;1.50;0.82;;;26.90;34.60;27.30;101036.00;;;;5004439;27;88029;-71
2023/05/28 09:52:58;;;;;;;1.00;0.80;;;27.00;34.60;27.30;101037.00;;;;4966239;28;88949;-71
2023/05/28 09:55:27;;;;;;;1.58;0.75;;;26.90;33.30;27.20;101042.00;;;;4980358;28;89140;-70
2023/05/28 09:58:01;;;;;;;0.60;0.60;;;26.80;33.80;27.30;101038.00;;;;4981650;28;88392;-73
2023/05/28 10:00:39;;;;;;;0.63;0.57;;;26.90;33.30;27.20;101032.00;;;;4980994;28;89973;-74
2023/05/28 10:03:22;;;;;;;2.90;1.02;;;26.80;34.00;27.40;101031.00;;;;4969589;28;108745;-72
2023/05/28 10:06:05;;;;;;;0.52;0.52;;;26.80;34.40;27.70;101035.00;;;;4970182;28;88149;-71
2023/05/28 10:08:37;;;;;;;1.25;0.98;;;27.10;34.30;27.90;101034.00;;;;4970026;28;88073;-71
2023/05/28 10:11:05;;;;;;;1.60;1.23;;;27.40;32.70;27.90;101025.00;;;;4981319;28;87156;-72
2023/05/28 10:13:32;;;;;;;1.02;0.80;;;27.40;32.00;27.70;101033.00;;;;4982080;28;87816;-71
2023/05/28 10:15:58;;;;;;;2.63;1.27;;;27.30;31.60;27.40;101026.00;;;;4970900;28;87844;-70
2023/05/28 10:18:25;;;;;;;1.17;0.93;;;27.00;32.50;27.40;101029.00;;;;4967858;28;104852;-72
2023/05/28 10:20:51;;;;;;;0.73;0.73;;;26.90;33.00;27.60;101032.00;;;;4983059;28;87701;-71
2023/05/28 10:23:19;;;;;;;0.95;0.90;;;27.00;33.50;27.90;101016.00;;;;4980260;28;118347;-73
2023/05/28 10:25:46;;;;;;;1.17;0.95;;;27.30;33.50;28.20;101031.00;;;;4952073;28;89701;-72
2023/05/28 10:28:15;;;;;;;2.70;0.85;;;27.50;33.20;28.40;101021.00;;;;4981369;28;108880;-73
2023/05/28 10:30:41;;;;;;;1.02;0.50;;;27.80;32.20;28.60;101015.00;;;;4953333;28;87851;-72
2023/05/28 10:33:17;;;;;;;0.73;0.73;;;27.90;32.70;28.90;101019.00;;;;4977219;28;88696;-71
2023/05/28 10:35:59;;;;;;;1.35;0.73;;;28.10;32.10;29.10;101016.00;;;;4968199;28;87811;-74
2023/05/28 10:38:27;;;;;;;1.83;1.00;;;28.40;32.10;29.50;101020.00;;;;4969876;28;87711;-74
2023/05/28 10:41:01;;;;;;;0.80;0.80;;;28.60;32.10;29.90;101017.00;;;;4982867;28;87843;-75
2023/05/28 10:43:39;;;;;;;1.15;0.60;;;29.00;32.00;30.10;101017.00;;;;4943247;28;91554;-74
2023/05/28 10:46:35;;;;;;;0.82;0.80;;;29.30;30.10;29.80;101017.00;;;;4978762;28;90115;-74
2023/05/28 10:49:12;;;;;;;0.77;0.75;;;29.30;29.60;29.80;101013.00;;;;4968058;28;88166;-75